Time;durP1;ratioP1;P1;durP2;ratioP2;P2;SDS_P1;SDS_P2;PMS_P1;PMS_P2;Temp;Humidity;BMP_temperature;BMP_pressure;BME280_temperature;BME280_humidity;BME280_pressure;Samples;Min_cycle;Max_cycle;Signal;HPM_P1;HPM_P2
2022/04/12 00:00:06;;;;;;;20.20;12.25;;;;;;;8.22;57.30;101024.66;5080352;28;20031;-52
2022/04/12 00:02:32;;;;;;;20.17;12.20;;;;;;;8.22;57.39;101021.09;5082624;28;20028;-56
2022/04/12 00:04:58;;;;;;;19.58;12.15;;;;;;;8.19;57.69;101016.16;5081747;28;20042;-52
2022/04/12 00:07:23;;;;;;;21.17;12.90;;;;;;;8.16;58.06;101014.78;5085662;28;20476;-55
2022/04/12 00:09:48;;;;;;;20.05;11.88;;;;;;;8.17;58.34;101010.13;5079431;28;20020;-55
2022/04/12 00:12:16;;;;;;;19.73;12.25;;;;;;;8.16;58.02;101011.22;5078463;28;20115;-51
2022/04/12 00:14:42;;;;;;;20.55;12.77;;;;;;;8.13;58.01;101001.59;5091514;28;20028;-56
2022/04/12 00:19:52;;;;;;;21.15;12.27;;;;;;;8.09;58.25;100987.56;5080914;28;20094;-54
2022/04/12 00:22:17;;;;;;;20.90;12.50;;;;;;;8.08;57.78;100993.38;5081162;28;20036;-54
2022/04/12 00:24:43;;;;;;;21.83;12.40;;;;;;;8.07;57.97;100991.72;5083795;28;20070;-54
2022/04/12 00:27:08;;;;;;;20.42;11.75;;;;;;;8.09;58.19;100990.31;5077746;28;20037;-55
2022/04/12 00:29:33;;;;;;;20.27;12.40;;;;;;;8.11;57.56;100979.84;5087237;28;20035;-51
2022/04/12 00:31:59;;;;;;;19.63;12.27;;;;;;;8.15;57.89;100979.28;5077426;28;20370;-51
2022/04/12 00:34:25;;;;;;;19.45;11.52;;;;;;;8.12;57.76;100988.94;5082869;28;20039;-54
2022/04/12 00:36:50;;;;;;;20.40;12.07;;;;;;;8.14;57.97;100980.38;5082507;28;20025;-53
2022/04/12 00:39:15;;;;;;;19.80;12.18;;;;;;;8.16;57.65;100967.94;5082327;28;20082;-54
2022/04/12 00:41:42;;;;;;;19.63;12.10;;;;;;;8.17;57.71;100974.31;5091394;28;20028;-53
2022/04/12 00:44:08;;;;;;;21.10;12.05;;;;;;;8.17;57.79;100979.81;5084372;28;20406;-54
2022/04/12 00:46:33;;;;;;;21.55;11.32;;;;;;;8.14;57.76;100972.09;5085862;28;20063;-55
2022/04/12 00:48:58;;;;;;;19.45;11.45;;;;;;;8.16;57.79;100969.91;5085045;28;20020;-53
2022/04/12 00:51:24;;;;;;;18.88;11.30;;;;;;;8.14;57.96;100972.09;5084815;28;20401;-55
2022/04/12 00:53:49;;;;;;;19.20;11.40;;;;;;;8.14;57.91;100970.16;5090423;28;20376;-54
2022/04/12 00:56:15;;;;;;;19.25;11.27;;;;;;;8.09;57.98;100971.03;5078534;28;20036;-54
2022/04/12 00:58:45;;;;;;;18.92;11.43;;;;;;;8.08;57.94;100974.88;5080616;28;20480;-55
2022/04/12 01:01:10;;;;;;;19.98;11.32;;;;;;;8.06;57.76;100979.03;5080227;28;20032;-54
2022/04/12 01:03:36;;;;;;;19.85;11.75;;;;;;;8.04;57.90;100971.06;5077558;28;20040;-56
2022/04/12 01:06:02;;;;;;;19.13;11.73;;;;;;;8.06;57.79;100970.78;5080448;28;20055;-53
2022/04/12 01:08:27;;;;;;;19.70;11.75;;;;;;;8.05;57.84;100967.22;5081663;28;20024;-56
2022/04/12 01:10:53;;;;;;;18.05;11.23;;;;;;;8.05;57.79;100977.38;5082970;28;20016;-55
2022/04/12 01:13:19;;;;;;;18.13;11.10;;;;;;;8.05;57.76;100985.66;5087077;28;20036;-56
2022/04/12 01:15:44;;;;;;;17.52;11.20;;;;;;;8.05;57.87;100980.16;5079769;28;20135;-55
2022/04/12 01:18:10;;;;;;;20.13;11.18;;;;;;;8.03;57.52;100971.38;5081123;28;20074;-55
2022/04/12 01:20:36;;;;;;;18.15;11.30;;;;;;;8.03;57.63;100977.69;5080646;28;20024;-54
2022/04/12 01:23:09;;;;;;;19.05;10.52;;;;;;;8.01;57.86;100977.16;5083269;28;20038;-55
2022/04/12 01:25:36;;;;;;;;;;;;;;;8.04;56.68;100962.81;5080092;28;20023;-52
2022/04/12 01:28:02;;;;;;;19.10;11.15;;;;;;;7.98;57.88;100969.47;5078729;28;19912;-52
2022/04/12 01:30:27;;;;;;;19.10;11.20;;;;;;;7.95;58.20;100979.09;5087530;28;20031;-53
2022/04/12 01:32:52;;;;;;;20.02;11.55;;;;;;;7.92;58.38;100974.19;5077687;28;20400;-52
2022/04/12 01:35:18;;;;;;;17.90;11.15;;;;;;;7.91;58.64;100968.94;5081359;28;20020;-53
2022/04/12 01:37:43;;;;;;;19.23;10.90;;;;;;;7.86;58.55;100967.03;5081771;28;20153;-54
2022/04/12 01:40:09;;;;;;;19.75;11.40;;;;;;;7.84;58.70;100971.19;5084182;28;20472;-50
2022/04/12 01:42:36;;;;;;;18.55;11.20;;;;;;;7.80;58.75;100977.25;5081252;28;20499;-50
2022/04/12 01:45:01;;;;;;;19.20;10.98;;;;;;;7.77;58.74;100974.25;5085628;28;20386;-51
2022/04/12 01:47:27;;;;;;;19.88;11.80;;;;;;;7.73;59.18;100967.69;5077757;28;20032;-53
2022/04/12 01:49:52;;;;;;;19.63;11.65;;;;;;;7.70;59.37;100966.31;5082370;28;20422;-54
2022/04/12 01:52:17;;;;;;;19.65;10.85;;;;;;;7.70;59.42;100971.00;5084334;28;20028;-53
2022/04/12 01:54:43;;;;;;;19.00;10.80;;;;;;;7.67;59.35;100969.63;5080676;28;20111;-52
2022/04/12 01:57:08;;;;;;;18.13;10.63;;;;;;;7.62;59.39;100967.75;5086072;28;20024;-50
2022/04/12 01:59:33;;;;;;;18.92;10.95;;;;;;;7.64;59.69;100965.53;5082956;28;20028;-54
2022/04/12 02:01:58;;;;;;;17.90;11.18;;;;;;;7.62;59.63;100953.13;5075482;28;20022;-52
2022/04/12 02:04:24;;;;;;;20.58;11.50;;;;;;;7.62;59.66;100950.38;5079786;28;20020;-54
2022/04/12 02:06:49;;;;;;;19.02;11.82;;;;;;;7.60;59.80;100944.34;5083745;28;20032;-54
2022/04/12 02:09:14;;;;;;;20.40;11.70;;;;;;;7.57;59.89;100940.22;5081467;28;20542;-51
2022/04/12 02:11:40;;;;;;;18.55;10.85;;;;;;;7.58;59.96;100943.81;5083589;28;20024;-52
2022/04/12 02:14:07;;;;;;;19.77;11.07;;;;;;;7.54;60.29;100950.97;5083792;28;20183;-53
2022/04/12 02:16:32;;;;;;;18.50;10.90;;;;;;;7.54;60.40;100949.06;5083925;28;20032;-54
2022/04/12 02:18:57;;;;;;;19.15;11.63;;;;;;;7.51;60.29;100948.81;5084290;28;20074;-55
2022/04/12 02:21:22;;;;;;;19.25;11.13;;;;;;;7.47;60.37;100957.63;5089560;28;20027;-56
2022/04/12 02:23:47;;;;;;;19.55;11.35;;;;;;;7.44;60.14;100957.38;5090152;28;20035;-54
2022/04/12 02:26:13;;;;;;;19.70;11.50;;;;;;;7.41;60.51;100958.75;5085935;28;20040;-56
2022/04/12 02:28:38;;;;;;;19.55;11.82;;;;;;;7.38;60.93;100955.72;5083923;28;20036;-55
2022/04/12 02:31:03;;;;;;;19.95;11.23;;;;;;;7.36;60.77;100956.00;5075392;28;20032;-56
2022/04/12 02:33:29;;;;;;;19.92;11.70;;;;;;;7.32;60.66;100943.94;5082646;28;20032;-57
2022/04/12 02:35:54;;;;;;;19.30;11.35;;;;;;;7.33;60.52;100945.56;5074860;28;20368;-55
2022/04/12 02:38:19;;;;;;;19.23;11.20;;;;;;;7.35;60.64;100951.63;5079891;28;20031;-54
2022/04/12 02:40:45;;;;;;;19.63;11.52;;;;;;;7.30;60.78;100948.91;5084234;28;20027;-54
2022/04/12 02:43:10;;;;;;;19.15;11.23;;;;;;;7.27;60.83;100939.28;5083959;28;20028;-54
2022/04/12 02:45:35;;;;;;;20.15;11.85;;;;;;;7.27;61.01;100943.94;5082358;28;20033;-55
2022/04/12 02:48:00;;;;;;;19.13;12.10;;;;;;;7.24;61.17;100941.75;5090430;28;20024;-54
2022/04/12 02:50:27;;;;;;;19.92;12.18;;;;;;;7.23;61.17;100940.09;5094745;28;20030;-55
2022/04/12 02:52:52;;;;;;;19.13;11.80;;;;;;;7.21;61.32;100937.63;5066064;28;20612;-55
2022/04/12 02:55:18;;;;;;;19.08;11.73;;;;;;;7.17;61.28;100939.31;5086859;28;20036;-53
2022/04/12 02:57:43;;;;;;;20.08;11.60;;;;;;;7.17;61.86;100931.06;5086479;28;20035;-55
2022/04/12 03:00:08;;;;;;;19.40;11.15;;;;;;;7.13;61.80;100930.78;5087184;28;20055;-55
2022/04/12 03:02:34;;;;;;;19.10;11.35;;;;;;;7.11;62.06;100923.91;5084197;28;20024;-54
2022/04/12 03:04:59;;;;;;;21.33;12.10;;;;;;;7.07;61.72;100920.09;5084982;28;20028;-55
2022/04/12 03:07:24;;;;;;;19.38;11.65;;;;;;;7.06;61.96;100916.50;5092749;28;20102;-53
2022/04/12 03:09:50;;;;;;;19.65;11.95;;;;;;;7.04;61.83;100918.69;5085996;28;20020;-55
2022/04/12 03:12:15;;;;;;;20.30;11.85;;;;;;;7.03;61.87;100915.16;5077838;28;20016;-54
2022/04/12 03:14:40;;;;;;;18.88;11.55;;;;;;;7.02;62.69;100915.44;5081469;28;20032;-55
2022/04/12 03:17:06;;;;;;;19.58;12.30;;;;;;;6.99;62.23;100919.53;5084500;28;20077;-55
2022/04/12 03:19:31;;;;;;;20.40;12.25;;;;;;;6.97;62.63;100912.69;5086978;28;20377;-55
2022/04/12 03:21:56;;;;;;;20.95;11.95;;;;;;;6.95;62.68;100903.88;5074833;28;20362;-52
2022/04/12 03:24:24;;;;;;;19.38;11.90;;;;;;;6.95;62.61;100898.38;5079802;28;20020;-54
2022/04/12 03:26:50;;;;;;;19.30;11.60;;;;;;;6.93;62.63;100895.91;5087247;28;20028;-54
2022/04/12 03:29:16;;;;;;;19.58;11.73;;;;;;;6.93;63.06;100895.91;5094134;28;20039;-55
2022/04/12 03:31:42;;;;;;;20.08;11.82;;;;;;;6.92;62.68;100898.97;5094744;28;20099;-55
2022/04/12 03:34:07;;;;;;;20.80;12.13;;;;;;;6.90;63.04;100890.97;5075842;28;20168;-54
2022/04/12 03:36:32;;;;;;;20.65;12.10;;;;;;;6.91;62.95;100880.81;5094178;28;20039;-54
2022/04/12 03:38:58;;;;;;;19.38;11.73;;;;;;;6.91;63.08;100883.56;5094074;28;20024;-55
2022/04/12 03:41:23;;;;;;;19.58;12.25;;;;;;;6.92;63.01;100885.22;5094737;28;20035;-54
2022/04/12 03:43:50;;;;;;;20.45;11.85;;;;;;;6.90;62.88;100884.66;5093877;28;20027;-54
2022/04/12 03:46:15;;;;;;;21.13;12.05;;;;;;;6.87;63.55;100886.88;5094528;28;20465;-55
2022/04/12 03:48:40;;;;;;;21.00;12.15;;;;;;;6.86;63.24;100892.66;5093956;28;20108;-54
2022/04/12 03:51:06;;;;;;;20.65;11.80;;;;;;;6.85;63.51;100899.25;5093440;28;20036;-54
2022/04/12 03:53:31;;;;;;;19.38;12.00;;;;;;;6.83;63.42;100895.94;5093805;28;20465;-55
2022/04/12 03:55:57;;;;;;;20.05;11.80;;;;;;;6.82;63.53;100897.06;5093707;28;20044;-55
2022/04/12 03:58:22;;;;;;;19.92;11.90;;;;;;;6.79;63.85;100906.69;5093779;28;20409;-53
2022/04/12 04:00:48;;;;;;;19.60;11.40;;;;;;;6.75;63.89;100905.63;5093893;28;20085;-54
2022/04/12 04:03:13;;;;;;;21.58;12.65;;;;;;;6.74;64.18;100905.88;5075921;28;20030;-55
2022/04/12 04:05:39;;;;;;;20.48;12.10;;;;;;;6.71;63.93;100890.78;5093451;28;20047;-55
2022/04/12 04:08:04;;;;;;;20.58;12.13;;;;;;;6.71;63.98;100879.78;5094404;28;20030;-55
2022/04/12 04:10:29;;;;;;;20.15;12.07;;;;;;;6.70;64.24;100878.97;5093618;28;20028;-55
2022/04/12 04:12:55;;;;;;;19.77;11.98;;;;;;;6.69;64.63;100877.31;5075139;28;20032;-54
2022/04/12 04:15:20;;;;;;;20.13;11.82;;;;;;;6.69;64.40;100869.06;5093719;28;20035;-52
2022/04/12 04:17:46;;;;;;;20.73;12.10;;;;;;;6.72;64.70;100870.44;5093755;28;20400;-54
2022/04/12 04:20:16;;;;;;;20.95;12.10;;;;;;;6.75;64.99;100872.63;5093383;28;20024;-55
2022/04/12 04:22:42;;;;;;;21.17;11.75;;;;;;;6.80;64.66;100880.03;5093427;28;20027;-56
2022/04/12 04:25:09;;;;;;;19.92;12.30;;;;;;;6.82;64.83;100875.91;5079851;28;20020;-55
2022/04/12 04:27:34;;;;;;;20.80;12.50;;;;;;;6.87;64.63;100877.81;5093449;28;20031;-55
2022/04/12 04:30:00;;;;;;;22.60;13.32;;;;;;;6.90;64.67;100888.22;5093551;28;20024;-55
2022/04/12 04:32:25;;;;;;;20.75;12.30;;;;;;;6.92;64.19;100888.78;5093396;28;20491;-52
2022/04/12 04:34:51;;;;;;;20.13;11.98;;;;;;;6.99;64.17;100892.03;5093443;28;20404;-54
2022/04/12 04:37:16;;;;;;;22.35;12.30;;;;;;;7.02;64.14;100888.72;5093135;28;20071;-56
2022/04/12 04:39:41;;;;;;;21.35;12.63;;;;;;;7.03;64.43;100895.88;5093054;28;20420;-54
2022/04/12 04:42:06;;;;;;;21.05;12.73;;;;;;;7.02;64.15;100896.19;5092874;28;20065;-55
2022/04/12 04:44:32;;;;;;;20.33;12.15;;;;;;;7.01;64.15;100895.34;5093047;28;20404;-54
2022/04/12 04:46:57;;;;;;;21.58;12.63;;;;;;;6.97;64.56;100893.44;5074344;28;20067;-53
2022/04/12 04:49:23;;;;;;;21.30;13.18;;;;;;;6.97;64.54;100876.94;5092901;28;20361;-54
2022/04/12 04:51:48;;;;;;;20.48;12.93;;;;;;;6.94;64.83;100877.50;5093527;28;20492;-54
2022/04/12 04:54:14;;;;;;;20.88;12.35;;;;;;;6.95;64.85;100877.22;5092648;28;21978;-54
2022/04/12 04:56:39;;;;;;;22.33;12.70;;;;;;;6.92;64.86;100882.47;5092860;28;20089;-54
2022/04/12 04:59:04;;;;;;;20.20;12.75;;;;;;;6.93;64.49;100884.91;5092696;28;20177;-54
2022/04/12 05:01:30;;;;;;;20.90;12.90;;;;;;;6.94;65.00;100902.25;5092620;28;20025;-53
2022/04/12 05:03:55;;;;;;;21.55;13.77;;;;;;;6.94;64.67;100905.00;5092992;28;20043;-56
2022/04/12 05:06:21;;;;;;;20.98;13.10;;;;;;;6.93;64.53;100904.16;5092296;28;20048;-53
2022/04/12 05:08:46;;;;;;;22.55;13.10;;;;;;;6.93;64.92;100906.91;5092878;28;20024;-54
2022/04/12 05:11:11;;;;;;;20.88;12.75;;;;;;;6.97;64.94;100915.44;5092518;28;20028;-55
2022/04/12 05:13:37;;;;;;;21.02;12.35;;;;;;;6.99;64.93;100911.28;5092598;28;20027;-55
2022/04/12 05:16:02;;;;;;;21.85;12.20;;;;;;;7.06;64.70;100922.00;5091623;28;20147;-54
2022/04/12 05:18:27;;;;;;;22.35;12.35;;;;;;;7.11;64.35;100922.00;5092490;28;20418;-55
2022/04/12 05:20:53;;;;;;;21.13;12.07;;;;;;;7.15;64.56;100914.81;5092533;28;20077;-56
2022/04/12 05:23:18;;;;;;;23.58;13.20;;;;;;;7.20;64.48;100919.47;5092226;28;20028;-54
2022/04/12 05:25:43;;;;;;;20.38;12.48;;;;;;;7.23;64.34;100915.31;5091849;28;20039;-55
2022/04/12 05:28:09;;;;;;;21.25;12.57;;;;;;;7.29;64.34;100909.53;5092228;28;20032;-55
2022/04/12 05:30:34;;;;;;;21.65;12.85;;;;;;;7.33;64.46;100912.53;5086049;28;20021;-55
2022/04/12 05:32:59;;;;;;;21.45;13.02;;;;;;;7.38;64.54;100912.53;5082666;28;20028;-55
2022/04/12 05:35:25;;;;;;;21.38;12.43;;;;;;;7.42;64.33;100913.59;5082697;28;20066;-54
2022/04/12 05:37:52;;;;;;;22.05;12.82;;;;;;;7.45;64.43;100901.22;5082015;28;20479;-54
2022/04/12 05:40:18;;;;;;;22.05;12.73;;;;;;;7.48;64.43;100901.47;5080262;28;20040;-54
2022/04/12 05:42:44;;;;;;;21.27;12.77;;;;;;;7.54;64.25;100906.94;5084792;28;20103;-54
2022/04/12 05:45:11;;;;;;;20.48;12.57;;;;;;;7.56;64.06;100900.03;5078735;28;20148;-55
2022/04/12 05:47:46;;;;;;;21.55;12.70;;;;;;;7.58;64.14;100888.75;5090681;28;20036;-55
2022/04/12 05:50:14;;;;;;;23.08;12.88;;;;;;;7.61;63.79;100894.50;5094755;28;20028;-55
2022/04/12 05:52:39;;;;;;;20.85;12.90;;;;;;;7.59;64.02;100891.19;5076348;28;20469;-55
2022/04/12 05:55:10;;;;;;;21.75;12.00;;;;;;;7.58;63.80;100908.81;5092086;28;20032;-54
2022/04/12 05:57:47;;;;;;;22.92;12.70;;;;;;;7.59;64.10;100906.91;5083659;28;20032;-55
2022/04/12 06:00:13;;;;;;;22.15;12.57;;;;;;;7.58;64.41;100913.53;5079673;28;20044;-54
2022/04/12 06:02:38;;;;;;;22.05;13.20;;;;;;;7.59;64.35;100917.94;5078386;28;20033;-54
2022/04/12 06:05:05;;;;;;;22.42;12.88;;;;;;;7.60;64.27;100914.06;5076855;28;20119;-55
2022/04/12 06:07:32;;;;;;;23.02;12.90;;;;;;;7.60;64.28;100920.38;5090976;28;20412;-55
2022/04/12 06:09:59;;;;;;;22.83;13.10;;;;;;;7.67;63.95;100917.31;5096285;28;20491;-57
2022/04/12 06:12:25;;;;;;;22.00;13.18;;;;;;;7.74;64.03;100909.56;5079909;28;20043;-53
2022/04/12 06:14:50;;;;;;;20.92;12.73;;;;;;;7.82;63.93;100913.66;5094886;28;20118;-56
2022/04/12 06:17:15;;;;;;;21.55;12.88;;;;;;;7.92;63.79;100908.06;5095371;28;20516;-54
2022/04/12 06:19:41;;;;;;;20.63;12.73;;;;;;;7.99;63.69;100906.91;5075608;28;20020;-56
2022/04/12 06:22:06;;;;;;;22.42;13.35;;;;;;;8.07;63.25;100904.38;5078664;28;20186;-53
2022/04/12 06:24:31;;;;;;;21.92;12.77;;;;;;;8.16;63.24;100912.03;5075511;28;20021;-54
2022/04/12 06:26:56;;;;;;;21.90;13.32;;;;;;;8.25;63.30;100911.09;5088260;28;20040;-54
2022/04/12 06:29:22;;;;;;;23.65;12.88;;;;;;;8.37;62.93;100913.47;5075522;28;20035;-56
2022/04/12 06:31:47;;;;;;;20.98;12.18;;;;;;;8.45;62.14;100906.53;5080742;28;20149;-52
2022/04/12 06:34:12;;;;;;;21.75;12.55;;;;;;;8.56;62.21;100905.34;5091320;28;20051;-47
2022/04/12 06:36:38;;;;;;;20.95;12.63;;;;;;;8.65;61.99;100900.00;5093609;28;20036;-47
2022/04/12 06:39:03;;;;;;;21.90;13.18;;;;;;;8.76;61.75;100913.69;5089920;28;20480;-50
2022/04/12 06:41:28;;;;;;;20.52;12.75;;;;;;;8.84;61.53;100911.13;5081224;28;20022;-48
2022/04/12 06:43:53;;;;;;;22.98;13.10;;;;;;;8.93;61.26;100911.28;5094960;28;20040;-53
2022/04/12 06:46:19;;;;;;;20.80;12.38;;;;;;;9.01;61.41;100915.34;5092690;28;20113;-56
2022/04/12 06:48:44;;;;;;;21.75;12.43;;;;;;;9.08;60.90;100901.19;5086239;28;20510;-55
2022/04/12 06:51:09;;;;;;;20.92;12.52;;;;;;;9.12;60.64;100910.50;5084973;28;20116;-54
2022/04/12 06:53:34;;;;;;;21.50;13.00;;;;;;;9.17;60.67;100904.94;5088524;28;20020;-53
2022/04/12 06:56:00;;;;;;;21.70;12.07;;;;;;;9.24;60.67;100908.16;5089709;28;20031;-52
2022/04/12 06:58:25;;;;;;;21.63;12.75;;;;;;;9.31;60.44;100905.84;5083891;28;20036;-56
2022/04/12 07:00:50;;;;;;;21.55;12.80;;;;;;;9.42;60.99;100901.03;5085736;28;20039;-52
2022/04/12 07:03:16;;;;;;;22.27;12.85;;;;;;;9.51;60.38;100892.88;5088281;28;20031;-53
2022/04/12 07:05:41;;;;;;;22.05;13.10;;;;;;;9.64;60.12;100899.59;5085242;28;20095;-54
2022/04/12 07:08:06;;;;;;;22.38;12.65;;;;;;;9.76;59.16;100905.50;5065985;28;20051;-49
2022/04/12 07:10:32;;;;;;;21.02;12.75;;;;;;;9.88;60.27;100895.97;5088830;28;20032;-56
2022/04/12 07:12:57;;;;;;;21.67;12.68;;;;;;;9.98;59.55;100895.81;5084907;28;20035;-54
2022/04/12 07:15:23;;;;;;;20.55;11.95;;;;;;;10.11;58.81;100888.69;5087960;28;20476;-56
2022/04/12 07:17:49;;;;;;;20.35;11.93;;;;;;;10.20;59.45;100889.63;5088674;28;20453;-53
2022/04/12 07:20:14;;;;;;;21.23;12.32;;;;;;;10.32;58.77;100896.63;5087432;28;20030;-51
2022/04/12 07:22:39;;;;;;;21.85;12.13;;;;;;;10.45;58.82;100887.56;5086044;28;20034;-54
2022/04/12 07:25:06;;;;;;;21.45;12.50;;;;;;;10.58;58.56;100895.06;5088578;28;20028;-56
2022/04/12 07:27:36;;;;;;;21.88;12.60;;;;;;;10.71;57.62;100900.94;5086020;28;20032;-51
2022/04/12 07:30:04;;;;;;;22.55;12.73;;;;;;;10.77;57.34;100899.69;5075008;28;20646;-53
2022/04/12 07:32:29;;;;;;;21.13;12.40;;;;;;;10.90;57.09;100898.06;5086418;28;20040;-51
2022/04/12 07:34:55;;;;;;;23.27;12.90;;;;;;;11.00;57.47;100908.13;5084809;28;20027;-53
2022/04/12 07:37:20;;;;;;;22.20;12.43;;;;;;;11.16;57.55;100909.44;5078104;28;20049;-53
2022/04/12 07:39:45;;;;;;;20.67;12.48;;;;;;;11.30;57.28;100891.97;5084715;28;20050;-53
2022/04/12 07:42:10;;;;;;;20.48;12.38;;;;;;;11.42;56.10;100885.94;5065475;28;20055;-53
2022/04/12 07:44:36;;;;;;;21.42;12.75;;;;;;;11.49;55.43;100886.31;5080738;28;20039;-52
2022/04/12 07:47:01;;;;;;;19.63;12.10;;;;;;;11.55;55.82;100885.91;5083711;28;20032;-52
2022/04/12 07:49:28;;;;;;;20.92;12.43;;;;;;;11.66;55.35;100888.44;5083005;28;20037;-54
2022/04/12 07:51:53;;;;;;;22.40;11.98;;;;;;;11.79;55.29;100893.09;5082028;28;20145;-55
2022/04/12 07:54:18;;;;;;;20.95;12.43;;;;;;;11.94;55.23;100889.16;5084954;28;20057;-55
2022/04/12 07:56:44;;;;;;;20.95;12.70;;;;;;;12.08;55.02;100891.09;5084476;28;20058;-54
2022/04/12 07:59:10;;;;;;;20.55;12.38;;;;;;;12.19;54.89;100888.88;5080934;28;20056;-54
2022/04/12 08:01:36;;;;;;;20.60;12.13;;;;;;;12.27;54.66;100891.72;5084628;28;20047;-55
2022/04/12 08:04:01;;;;;;;21.00;12.27;;;;;;;12.41;54.22;100896.34;5093368;28;20481;-52
2022/04/12 08:06:26;;;;;;;21.48;12.52;;;;;;;12.52;54.53;100886.63;5089263;28;20052;-52
2022/04/12 08:08:52;;;;;;;20.10;11.73;;;;;;;12.68;54.48;100887.03;5078626;28;20319;-52
2022/04/12 08:11:17;;;;;;;21.80;13.18;;;;;;;12.80;53.75;100890.00;5083355;28;20064;-53
2022/04/12 08:13:43;;;;;;;20.35;13.05;;;;;;;12.90;53.10;100882.53;5085145;28;20091;-54
2022/04/12 08:16:09;;;;;;;20.73;11.68;;;;;;;13.03;54.37;100881.59;5084442;28;20038;-56
2022/04/12 08:18:35;;;;;;;21.08;11.93;;;;;;;13.12;53.15;100887.19;5089213;28;21325;-57
2022/04/12 08:21:00;;;;;;;21.33;11.98;;;;;;;13.24;52.21;100889.34;5083364;28;20117;-55
2022/04/12 08:23:26;;;;;;;22.10;11.40;;;;;;;13.34;51.81;100894.59;5085758;28;20032;-54
2022/04/12 08:25:52;;;;;;;19.15;11.30;;;;;;;13.47;51.71;100892.00;5071857;28;20063;-52
2022/04/12 08:28:18;;;;;;;19.35;11.15;;;;;;;13.55;52.27;100894.00;5085735;28;20029;-54
2022/04/12 08:30:43;;;;;;;19.70;11.63;;;;;;;13.64;51.69;100894.00;5077429;28;20032;-54
2022/04/12 08:33:09;;;;;;;20.35;11.30;;;;;;;13.76;51.70;100890.56;5061093;28;20036;-54
2022/04/12 08:35:34;;;;;;;19.67;10.80;;;;;;;13.88;51.43;100886.00;5080735;28;20641;-52
2022/04/12 08:38:00;;;;;;;18.80;10.75;;;;;;;14.05;51.08;100887.13;5083009;28;20032;-52
2022/04/12 08:40:25;;;;;;;20.02;11.13;;;;;;;14.23;50.53;100881.53;5082448;28;20036;-50
2022/04/12 08:42:53;;;;;;;21.42;11.43;;;;;;;14.31;49.83;100884.28;5082650;28;20102;-53
2022/04/12 08:45:18;;;;;;;20.00;10.73;;;;;;;14.42;50.53;100887.56;5084978;28;20044;-54
2022/04/12 08:47:43;;;;;;;17.63;10.35;;;;;;;14.57;49.91;100879.81;5080922;28;20042;-53
2022/04/12 08:50:10;;;;;;;21.60;10.57;;;;;;;14.71;49.54;100871.28;5082795;28;20034;-60
2022/04/12 08:52:36;;;;;;;18.75;10.82;;;;;;;14.86;49.00;100867.13;5079740;28;20036;-54
2022/04/12 08:55:04;;;;;;;18.25;10.02;;;;;;;14.94;48.93;100864.28;5077125;28;20043;-54
2022/04/12 08:57:29;;;;;;;19.40;10.18;;;;;;;14.98;48.56;100856.09;5080705;28;20070;-51
2022/04/12 08:59:55;;;;;;;20.25;9.82;;;;;;;15.07;48.40;100856.84;5087148;28;20060;-53
2022/04/12 09:02:20;;;;;;;19.85;10.60;;;;;;;15.17;48.49;100860.41;5085150;28;20055;-55
2022/04/12 09:04:45;;;;;;;19.17;9.98;;;;;;;15.26;47.99;100855.59;5088014;28;20476;-53
2022/04/12 09:07:12;;;;;;;18.02;9.98;;;;;;;15.37;47.89;100856.00;5080962;28;20056;-54
2022/04/12 09:09:39;;;;;;;19.25;10.35;;;;;;;15.41;47.56;100857.75;5080725;28;20029;-55
2022/04/12 09:12:06;;;;;;;18.52;10.15;;;;;;;15.48;47.11;100854.44;5082811;28;20040;-53
2022/04/12 09:14:40;;;;;;;20.88;10.07;;;;;;;15.53;47.52;100848.69;5087594;28;20957;-55
2022/04/12 09:17:06;;;;;;;;;;;;;;;15.61;48.00;100849.75;5082489;28;20039;-56
2022/04/12 09:19:48;;;;;;;17.30;9.32;;;;;;;15.64;46.77;100853.81;5088654;28;19920;-54
2022/04/12 09:22:19;;;;;;;17.38;9.30;;;;;;;15.71;46.78;100846.56;5087938;28;20043;-52
2022/04/12 09:24:46;;;;;;;17.23;8.98;;;;;;;15.79;46.75;100850.44;5086244;28;20066;-54
2022/04/12 09:27:14;;;;;;;19.58;9.55;;;;;;;15.87;45.75;100838.41;5082271;28;20041;-53
2022/04/12 09:29:55;;;;;;;19.83;9.80;;;;;;;15.91;45.99;100830.16;5081659;28;20036;-54
2022/04/12 09:32:29;;;;;;;18.35;9.02;;;;;;;15.96;46.26;100829.97;5078142;28;20466;-55
2022/04/12 09:34:56;;;;;;;19.52;9.20;;;;;;;16.10;46.08;100815.72;5089686;28;20481;-55
2022/04/12 09:37:26;;;;;;;17.38;8.68;;;;;;;16.22;46.12;100817.69;5083687;28;20032;-54
2022/04/12 09:40:01;;;;;;;16.75;9.32;;;;;;;16.30;45.70;100815.94;5081796;28;20072;-53
2022/04/12 09:42:54;;;;;;;16.65;8.90;;;;;;;16.42;46.33;100818.78;5085909;28;20044;-55
2022/04/12 09:45:30;;;;;;;19.27;9.45;;;;;;;16.52;45.83;100815.53;5080742;28;20036;-53
2022/04/12 09:47:58;;;;;;;18.65;9.32;;;;;;;16.63;45.14;100807.50;5080385;28;20039;-56
2022/04/12 09:50:26;;;;;;;18.10;9.77;;;;;;;16.72;45.34;100818.56;5076354;28;20032;-53
2022/04/12 09:52:56;;;;;;;18.02;9.50;;;;;;;16.80;44.80;100811.25;5079661;28;20032;-56
2022/04/12 09:55:37;;;;;;;17.88;9.40;;;;;;;16.95;45.72;100818.94;5058045;28;20121;-52
2022/04/12 09:58:05;;;;;;;17.40;9.90;;;;;;;17.02;45.71;100811.94;5076726;28;20508;-55
2022/04/12 10:00:32;;;;;;;20.02;9.40;;;;;;;17.17;45.32;100819.63;5074642;28;20035;-54
2022/04/12 10:03:01;;;;;;;18.88;9.60;;;;;;;17.22;44.17;100824.97;5079100;28;20115;-56
2022/04/12 10:05:28;;;;;;;16.90;9.20;;;;;;;17.25;43.67;100826.22;5076089;28;20025;-56
2022/04/12 10:07:56;;;;;;;19.42;9.65;;;;;;;17.30;44.22;100817.63;5078041;28;20116;-53
2022/04/12 10:10:23;;;;;;;18.85;10.13;;;;;;;17.39;43.81;100826.69;5080639;28;20069;-53
2022/04/12 10:12:48;;;;;;;18.65;8.88;;;;;;;17.48;43.50;100826.53;5079212;28;20036;-55
2022/04/12 10:15:13;;;;;;;18.58;9.93;;;;;;;17.59;43.93;100819.25;5080194;28;20442;-56
2022/04/12 10:17:40;;;;;;;18.05;9.98;;;;;;;17.60;42.90;100818.09;5078273;28;20036;-56
2022/04/12 10:20:06;;;;;;;17.95;9.95;;;;;;;17.57;42.51;100812.41;5084830;28;20111;-56
2022/04/12 10:22:33;;;;;;;19.08;10.30;;;;;;;17.61;43.00;100818.94;5068652;28;20051;-55
2022/04/12 10:25:00;;;;;;;18.70;9.90;;;;;;;17.53;43.14;100795.53;5080643;28;20048;-56
2022/04/12 10:27:26;;;;;;;16.83;9.13;;;;;;;17.52;43.72;100791.09;5087352;28;20050;-55
2022/04/12 10:30:17;;;;;;;17.92;9.57;;;;;;;17.67;43.37;100780.31;5081332;28;20024;-56
2022/04/12 10:33:01;;;;;;;16.58;8.82;;;;;;;17.84;43.39;100784.78;5078315;28;20028;-55
2022/04/12 10:35:56;;;;;;;17.00;8.82;;;;;;;18.06;42.82;100772.19;5080368;28;20039;-55
2022/04/12 10:38:22;;;;;;;;;;;;;;;18.25;43.73;100777.13;5072121;28;20040;-52
2022/04/12 10:40:51;;;;;;;16.95;9.32;;;;;;;18.38;41.95;100772.22;5080494;28;19924;-55
2022/04/12 10:43:33;;;;;;;18.73;9.48;;;;;;;18.58;42.71;100770.31;5078782;28;20429;-55
2022/04/12 10:46:04;;;;;;;19.67;10.25;;;;;;;18.83;41.96;100762.50;5067459;28;20026;-57
2022/04/12 10:48:31;;;;;;;18.92;10.05;;;;;;;18.99;41.69;100767.28;5083081;28;20629;-52
2022/04/12 10:50:59;;;;;;;18.55;10.00;;;;;;;19.06;41.41;100769.44;5080172;28;20066;-56
2022/04/12 10:53:37;;;;;;;17.80;9.68;;;;;;;19.11;41.84;100763.56;5081866;28;20055;-57
2022/04/12 10:56:16;;;;;;;16.90;9.70;;;;;;;19.13;39.97;100763.97;5082511;28;20059;-56
2022/04/12 10:58:43;;;;;;;19.63;9.85;;;;;;;19.17;40.24;100774.13;5080225;28;20111;-53
2022/04/12 11:01:27;;;;;;;16.58;9.10;;;;;;;19.08;40.77;100753.88;5082518;28;20028;-55
2022/04/12 11:03:54;;;;;;;18.92;9.85;;;;;;;19.13;40.51;100758.38;5091256;28;20508;-55
2022/04/12 11:06:24;;;;;;;17.33;9.55;;;;;;;19.13;40.35;100750.78;5092151;28;20056;-55
2022/04/12 11:09:05;;;;;;;17.13;9.90;;;;;;;19.19;40.70;100740.09;5082339;28;20461;-55
2022/04/12 11:11:40;;;;;;;17.90;9.45;;;;;;;19.13;39.51;100742.38;5085052;28;20036;-56
2022/04/12 11:14:26;;;;;;;16.67;9.32;;;;;;;19.17;40.58;100742.44;5088271;28;20051;-55
2022/04/12 11:16:56;;;;;;;13.75;8.80;;;;;;;19.11;40.00;100744.72;5083038;28;20023;-55